Wetterdaten: Woche 22.11.10 - 28.11.10 (KW47)
Datum Zeit Temperatur Luftfeuchte Luftdruck Niederschlag Wind Richtung Sonnenschein Solar Taupunkt Windchill Windben
22.11.2010 00:00 4.4 C 94 % 1001.7 hPa 0.0 l/m 0.1 km/h (0 Bft) O 0.00 h 0 W/m 3.5 C 4.4 C 0.5 km/h (0 Bft)
22.11.2010 01:00 4.4 C 94 % 1001.1 hPa 0.0 l/m 0.1 km/h (0 Bft) O 0.00 h 0 W/m 3.5 C 4.4 C 0.3 km/h (0 Bft)
22.11.2010 02:00 4.3 C 95 % 1001.2 hPa 0.0 l/m 0.0 km/h (0 Bft) N 0.00 h 0 W/m 3.6 C 4.3 C 0.0 km/h (0 Bft)
22.11.2010 03:00 4.3 C 95 % 1000.7 hPa 0.0 l/m 0.3 km/h (0 Bft) O 0.00 h 0 W/m 3.6 C 4.3 C 1.0 km/h (0 Bft)
22.11.2010 04:00 4.3 C 95 % 1000.4 hPa 0.0 l/m 0.0 km/h (0 Bft) O 0.00 h 0 W/m 3.6 C 4.3 C 0.2 km/h (0 Bft)
22.11.2010 05:00 4.3 C 96 % 1000.3 hPa 0.0 l/m 0.0 km/h (0 Bft) N 0.00 h 0 W/m 3.7 C 4.3 C 0.0 km/h (0 Bft)
22.11.2010 06:00 4.2 C 96 % 1000.0 hPa 0.0 l/m 0.7 km/h (0 Bft) W-NW 0.00 h 0 W/m 3.6 C 4.2 C 1.9 km/h (1 Bft)
22.11.2010 07:00 4.1 C 96 % 1000.1 hPa 0.0 l/m 6.2 km/h (2 Bft) W 0.00 h 5 W/m 3.4 C 2.7 C 9.6 km/h (2 Bft)
22.11.2010 08:00 4.0 C 95 % 1000.5 hPa 0.0 l/m 5.7 km/h (1 Bft) W 0.00 h 9 W/m 3.3 C 2.9 C 8.9 km/h (2 Bft)
22.11.2010 09:00 4.3 C 95 % 1000.6 hPa 0.0 l/m 5.5 km/h (1 Bft) W 0.00 h 37 W/m 3.5 C 3.2 C 8.8 km/h (2 Bft)
22.11.2010 10:00 4.5 C 93 % 1000.8 hPa 0.0 l/m 6.4 km/h (2 Bft) W-SW 0.00 h 31 W/m 3.4 C 3.1 C 10.1 km/h (2 Bft)
22.11.2010 11:00 4.7 C 91 % 1000.9 hPa 0.0 l/m 8.3 km/h (2 Bft) W 0.00 h 39 W/m 3.4 C 2.8 C 13.1 km/h (3 Bft)
22.11.2010 12:00 4.9 C 90 % 1000.7 hPa 0.0 l/m 8.8 km/h (2 Bft) W 0.00 h 41 W/m 3.3 C 2.8 C 13.4 km/h (3 Bft)
22.11.2010 13:00 5.0 C 89 % 1000.6 hPa 0.0 l/m 9.9 km/h (2 Bft) W 0.00 h 50 W/m 3.2 C 2.7 C 15.1 km/h (3 Bft)
22.11.2010 14:00 4.9 C 90 % 1000.5 hPa 0.0 l/m 6.7 km/h (2 Bft) W 0.00 h 47 W/m 3.4 C 3.5 C 10.6 km/h (2 Bft)
22.11.2010 15:00 4.9 C 90 % 1000.7 hPa 0.0 l/m 6.8 km/h (2 Bft) W 0.00 h 45 W/m 3.4 C 3.5 C 10.9 km/h (2 Bft)
22.11.2010 16:00 4.7 C 91 % 1001.0 hPa 0.0 l/m 7.0 km/h (2 Bft) W 0.00 h 12 W/m 3.3 C 3.1 C 10.6 km/h (2 Bft)
22.11.2010 17:00 4.6 C 91 % 1001.4 hPa 0.0 l/m 7.8 km/h (2 Bft) W 0.00 h 0 W/m 3.2 C 2.8 C 12.0 km/h (2 Bft)
22.11.2010 18:00 4.5 C 91 % 1001.9 hPa 0.0 l/m 7.1 km/h (2 Bft) W 0.00 h 0 W/m 3.1 C 2.8 C 10.1 km/h (2 Bft)
22.11.2010 19:00 4.3 C 91 % 1002.3 hPa 0.0 l/m 6.6 km/h (2 Bft) W 0.00 h 0 W/m 3.0 C 2.8 C 9.8 km/h (2 Bft)
22.11.2010 20:00 4.1 C 92 % 1002.6 hPa 0.0 l/m 10.6 km/h (2 Bft) W 0.00 h 0 W/m 2.9 C 1.6 C 16.2 km/h (3 Bft)
22.11.2010 21:00 4.1 C 90 % 1002.7 hPa 0.0 l/m 11.2 km/h (2 Bft) W 0.00 h 0 W/m 2.7 C 1.4 C 17.2 km/h (3 Bft)
22.11.2010 22:00 4.1 C 90 % 1003.0 hPa 0.0 l/m 11.1 km/h (2 Bft) W 0.00 h 0 W/m 2.6 C 1.4 C 16.4 km/h (3 Bft)
22.11.2010 23:00 4.1 C 90 % 1002.9 hPa 0.0 l/m 9.3 km/h (2 Bft) W 0.00 h 0 W/m 2.6 C 1.8 C 14.0 km/h (3 Bft)
23.11.2010 00:00 4.0 C 89 % 1003.1 hPa 0.0 l/m 10.4 km/h (2 Bft) W 0.00 h 0 W/m 2.4 C 1.4 C 16.2 km/h (3 Bft)
23.11.2010 01:00 3.8 C 90 % 1003.1 hPa 0.0 l/m 9.0 km/h (2 Bft) W 0.00 h 0 W/m 2.3 C 1.5 C 14.0 km/h (3 Bft)
23.11.2010 02:00 3.5 C 92 % 1003.5 hPa 0.2 l/m 6.4 km/h (2 Bft) W 0.00 h 0 W/m 2.3 C 1.9 C 10.1 km/h (2 Bft)
23.11.2010 03:00 3.1 C 94 % 1003.8 hPa 0.2 l/m 3.6 km/h (1 Bft) W 0.00 h 0 W/m 2.2 C 2.6 C 6.2 km/h (2 Bft)
23.11.2010 04:00 3.0 C 95 % 1004.0 hPa 0.2 l/m 1.5 km/h (1 Bft) W-NW 0.00 h 0 W/m 2.3 C 3.0 C 3.4 km/h (1 Bft)
23.11.2010 05:00 2.8 C 95 % 1004.4 hPa 0.4 l/m 2.3 km/h (1 Bft) W-SW 0.00 h 0 W/m 2.1 C 2.6 C 4.1 km/h (1 Bft)
23.11.2010 06:00 2.7 C 96 % 1004.7 hPa 0.4 l/m 0.7 km/h (0 Bft) S-SO 0.00 h 0 W/m 2.1 C 2.7 C 2.2 km/h (1 Bft)
23.11.2010 07:00 2.6 C 96 % 1005.0 hPa 0.2 l/m 1.3 km/h (1 Bft) S-SW 0.00 h 0 W/m 2.1 C 2.6 C 3.3 km/h (1 Bft)
23.11.2010 08:00 2.6 C 97 % 1005.4 hPa 0.0 l/m 1.8 km/h (1 Bft) S 0.00 h 12 W/m 2.1 C 2.5 C 3.7 km/h (1 Bft)
23.11.2010 09:00 2.7 C 96 % 1005.9 hPa 0.0 l/m 2.8 km/h (1 Bft) W-SW 0.00 h 23 W/m 2.1 C 2.3 C 5.0 km/h (1 Bft)
23.11.2010 10:00 2.8 C 96 % 1006.1 hPa 0.2 l/m 1.0 km/h (0 Bft) W-NW 0.00 h 30 W/m 2.2 C 2.7 C 2.7 km/h (1 Bft)
23.11.2010 11:00 2.8 C 95 % 1006.5 hPa 0.0 l/m 4.3 km/h (1 Bft) W-NW 0.00 h 30 W/m 2.1 C 2.0 C 7.1 km/h (2 Bft)
23.11.2010 12:00 3.0 C 95 % 1006.4 hPa 0.0 l/m 3.0 km/h (1 Bft) SW 0.00 h 33 W/m 2.3 C 2.5 C 5.9 km/h (2 Bft)
23.11.2010 13:00 3.4 C 94 % 1006.5 hPa 0.0 l/m 1.7 km/h (1 Bft) W-NW 0.00 h 48 W/m 2.5 C 3.2 C 3.7 km/h (1 Bft)
23.11.2010 14:00 3.9 C 92 % 1006.6 hPa 0.0 l/m 2.9 km/h (1 Bft) W-SW 0.00 h 48 W/m 2.6 C 3.6 C 5.6 km/h (1 Bft)
23.11.2010 15:00 4.0 C 90 % 1007.0 hPa 0.0 l/m 5.7 km/h (1 Bft) W 0.00 h 18 W/m 2.6 C 2.8 C 9.4 km/h (2 Bft)
23.11.2010 16:00 3.2 C 90 % 1007.4 hPa 0.0 l/m 1.9 km/h (1 Bft) N-NW 0.00 h 6 W/m 1.8 C 2.9 C 3.5 km/h (1 Bft)
23.11.2010 17:00 2.8 C 92 % 1008.1 hPa 0.0 l/m 1.9 km/h (1 Bft) S 0.00 h 0 W/m 1.6 C 2.6 C 3.9 km/h (1 Bft)
23.11.2010 18:00 2.6 C 91 % 1008.5 hPa 0.0 l/m 4.7 km/h (1 Bft) W-SW 0.00 h 0 W/m 1.3 C 1.6 C 7.9 km/h (2 Bft)
23.11.2010 19:00 2.7 C 91 % 1008.8 hPa 0.0 l/m 10.9 km/h (2 Bft) W 0.00 h 0 W/m 1.4 C -0.3 C 16.9 km/h (3 Bft)
23.11.2010 20:00 2.7 C 91 % 1008.9 hPa 0.0 l/m 7.1 km/h (2 Bft) W-NW 0.00 h 0 W/m 1.4 C 1.0 C 10.9 km/h (2 Bft)
23.11.2010 21:00 2.3 C 92 % 1009.2 hPa 0.0 l/m 2.0 km/h (1 Bft) S-SO 0.00 h 0 W/m 1.1 C 2.0 C 4.4 km/h (1 Bft)
23.11.2010 22:00 2.4 C 90 % 1009.4 hPa 0.0 l/m 2.8 km/h (1 Bft) S-SW 0.00 h 0 W/m 1.0 C 2.2 C 5.5 km/h (1 Bft)
23.11.2010 23:00 2.4 C 90 % 1009.5 hPa 0.0 l/m 1.9 km/h (1 Bft) S 0.00 h 0 W/m 0.9 C 2.2 C 4.3 km/h (1 Bft)
24.11.2010 00:00 2.6 C 90 % 1009.5 hPa 0.0 l/m 2.5 km/h (1 Bft) W 0.00 h 0 W/m 1.0 C 2.1 C 4.7 km/h (1 Bft)
24.11.2010 01:00 2.9 C 87 % 1009.3 hPa 0.0 l/m 6.9 km/h (2 Bft) W 0.00 h 0 W/m 1.0 C 1.2 C 10.7 km/h (2 Bft)
24.11.2010 02:00 2.8 C 89 % 1009.3 hPa 0.0 l/m 3.7 km/h (1 Bft) SW 0.00 h 0 W/m 1.1 C 2.1 C 6.4 km/h (2 Bft)
24.11.2010 03:00 2.4 C 92 % 1009.4 hPa 0.2 l/m 3.8 km/h (1 Bft) W-SW 0.00 h 0 W/m 1.3 C 1.7 C 6.8 km/h (2 Bft)
24.11.2010 04:00 2.3 C 92 % 1009.6 hPa 0.0 l/m 5.5 km/h (1 Bft) W 0.00 h 0 W/m 1.2 C 1.1 C 9.5 km/h (2 Bft)
24.11.2010 05:00 2.4 C 92 % 1010.0 hPa 0.0 l/m 1.1 km/h (1 Bft) W-SW 0.00 h 0 W/m 1.2 C 2.4 C 2.9 km/h (1 Bft)
24.11.2010 06:00 2.4 C 92 % 1010.0 hPa 0.0 l/m 1.5 km/h (1 Bft) S 0.00 h 0 W/m 1.2 C 2.4 C 3.5 km/h (1 Bft)
24.11.2010 07:00 2.3 C 93 % 1010.1 hPa 0.0 l/m 3.8 km/h (1 Bft) S 0.00 h 0 W/m 1.2 C 2.0 C 6.3 km/h (2 Bft)
24.11.2010 08:00 2.1 C 94 % 1010.5 hPa 0.4 l/m 1.7 km/h (1 Bft) S-SW 0.00 h 15 W/m 1.2 C 2.0 C 3.9 km/h (1 Bft)
24.11.2010 09:00 2.1 C 96 % 1010.6 hPa 0.0 l/m 3.7 km/h (1 Bft) S-SW 0.00 h 65 W/m 1.5 C 1.7 C 6.3 km/h (2 Bft)
24.11.2010 10:00 2.5 C 96 % 1010.6 hPa 0.0 l/m 3.9 km/h (1 Bft) S 0.00 h 72 W/m 1.9 C 2.0 C 6.8 km/h (2 Bft)
24.11.2010 11:00 2.9 C 96 % 1010.5 hPa 0.0 l/m 3.9 km/h (1 Bft) S-SW 0.00 h 57 W/m 2.3 C 2.3 C 6.4 km/h (2 Bft)
24.11.2010 12:00 3.2 C 94 % 1010.4 hPa 0.0 l/m 3.0 km/h (1 Bft) S-SW 0.00 h 43 W/m 2.3 C 3.0 C 5.5 km/h (1 Bft)
24.11.2010 13:00 3.7 C 92 % 1010.1 hPa 0.0 l/m 2.6 km/h (1 Bft) S-SW 0.00 h 57 W/m 2.6 C 3.6 C 4.9 km/h (1 Bft)
24.11.2010 14:00 4.1 C 90 % 1009.7 hPa 0.0 l/m 3.9 km/h (1 Bft) S-SW 0.00 h 39 W/m 2.6 C 3.6 C 6.5 km/h (2 Bft)
24.11.2010 15:00 4.1 C 87 % 1009.8 hPa 0.0 l/m 5.3 km/h (1 Bft) W 0.00 h 34 W/m 2.2 C 3.0 C 8.5 km/h (2 Bft)
24.11.2010 16:00 3.8 C 87 % 1009.9 hPa 0.0 l/m 2.4 km/h (1 Bft) W 0.00 h 11 W/m 1.8 C 3.6 C 4.5 km/h (1 Bft)
24.11.2010 17:00 3.6 C 87 % 1009.9 hPa 0.0 l/m 0.7 km/h (0 Bft) W 0.00 h 0 W/m 1.6 C 3.6 C 1.9 km/h (1 Bft)
24.11.2010 18:00 3.3 C 89 % 1009.9 hPa 0.0 l/m 0.4 km/h (0 Bft) S 0.00 h 0 W/m 1.7 C 3.3 C 1.4 km/h (1 Bft)
24.11.2010 19:00 3.2 C 91 % 1009.8 hPa 0.0 l/m 1.9 km/h (1 Bft) S-SO 0.00 h 0 W/m 1.9 C 3.1 C 3.6 km/h (1 Bft)
24.11.2010 20:00 3.3 C 91 % 1009.9 hPa 0.0 l/m 5.5 km/h (1 Bft) W 0.00 h 0 W/m 1.9 C 2.2 C 9.2 km/h (2 Bft)
24.11.2010 21:00 3.1 C 89 % 1010.0 hPa 0.0 l/m 5.9 km/h (2 Bft) W-NW 0.00 h 0 W/m 1.5 C 1.9 C 9.6 km/h (2 Bft)
24.11.2010 22:00 3.0 C 88 % 1010.3 hPa 0.0 l/m 5.3 km/h (1 Bft) W 0.00 h 0 W/m 1.2 C 2.0 C 8.2 km/h (2 Bft)
24.11.2010 23:00 2.8 C 88 % 1010.2 hPa 0.0 l/m 2.8 km/h (1 Bft) W-NW 0.00 h 0 W/m 1.1 C 2.2 C 4.6 km/h (1 Bft)
25.11.2010 00:00 2.7 C 90 % 1010.1 hPa 0.2 l/m 4.5 km/h (1 Bft) W-NW 0.00 h 0 W/m 1.2 C 1.6 C 7.1 km/h (2 Bft)
25.11.2010 01:00 2.2 C 92 % 1009.7 hPa 0.0 l/m 1.1 km/h (1 Bft) NO 0.00 h 0 W/m 1.1 C 2.2 C 2.7 km/h (1 Bft)
25.11.2010 02:00 2.2 C 92 % 1009.3 hPa 0.0 l/m 1.0 km/h (0 Bft) SW 0.00 h 0 W/m 1.0 C 2.2 C 2.8 km/h (1 Bft)
25.11.2010 03:00 2.0 C 92 % 1009.0 hPa 0.0 l/m 1.1 km/h (1 Bft) S-SO 0.00 h 0 W/m 0.8 C 2.0 C 2.6 km/h (1 Bft)
25.11.2010 04:00 1.2 C 92 % 1008.6 hPa 0.0 l/m 0.4 km/h (0 Bft) S-SO 0.00 h 0 W/m 0.1 C 1.2 C 1.4 km/h (1 Bft)
25.11.2010 05:00 0.8 C 93 % 1008.2 hPa 0.0 l/m 1.5 km/h (1 Bft) S-SO 0.00 h 0 W/m -0.2 C 0.7 C 3.1 km/h (1 Bft)
25.11.2010 06:00 0.7 C 93 % 1007.9 hPa 0.0 l/m 1.1 km/h (0 Bft) SO 0.00 h 0 W/m -0.2 C 0.6 C 2.1 km/h (1 Bft)
25.11.2010 07:00 1.1 C 92 % 1007.4 hPa 0.0 l/m 0.5 km/h (0 Bft) O-SO 0.00 h 0 W/m 0.0 C 1.1 C 1.7 km/h (1 Bft)
25.11.2010 08:00 1.6 C 91 % 1007.1 hPa 0.0 l/m 2.8 km/h (1 Bft) SO 0.00 h 21 W/m 0.3 C 1.3 C 5.6 km/h (1 Bft)
25.11.2010 09:00 2.3 C 89 % 1006.7 hPa 0.0 l/m 1.9 km/h (1 Bft) W-SW 0.00 h 48 W/m 0.7 C 2.2 C 4.1 km/h (1 Bft)
25.11.2010 10:00 3.3 C 86 % 1006.2 hPa 0.0 l/m 1.0 km/h (0 Bft) S 0.00 h 121 W/m 1.2 C 3.2 C 2.8 km/h (1 Bft)
25.11.2010 11:00 4.3 C 81 % 1005.3 hPa 0.0 l/m 3.9 km/h (1 Bft) S-SW 0.00 h 152 W/m 1.3 C 3.8 C 7.2 km/h (2 Bft)
25.11.2010 12:00 5.4 C 76 % 1004.6 hPa 0.0 l/m 3.6 km/h (1 Bft) S-SW 0.80 h 212 W/m 1.6 C 4.9 C 6.2 km/h (2 Bft)
25.11.2010 13:00 5.6 C 75 % 1003.7 hPa 0.0 l/m 2.9 km/h (1 Bft) W-SW 0.28 h 165 W/m 1.6 C 5.4 C 5.3 km/h (1 Bft)
25.11.2010 14:00 5.8 C 74 % 1002.9 hPa 0.0 l/m 2.9 km/h (1 Bft) SW 0.42 h 142 W/m 1.5 C 5.6 C 5.4 km/h (1 Bft)
25.11.2010 15:00 5.5 C 73 % 1002.3 hPa 0.0 l/m 1.8 km/h (1 Bft) S-SO 0.02 h 53 W/m 1.0 C 5.5 C 3.9 km/h (1 Bft)
25.11.2010 16:00 4.9 C 74 % 1001.6 hPa 0.0 l/m 2.8 km/h (1 Bft) S-SO 0.00 h 11 W/m 0.6 C 4.8 C 5.1 km/h (1 Bft)
25.11.2010 17:00 4.8 C 74 % 1001.2 hPa 0.0 l/m 4.6 km/h (1 Bft) S-SO 0.00 h 0 W/m 0.6 C 4.1 C 7.3 km/h (2 Bft)
25.11.2010 18:00 4.7 C 75 % 1000.7 hPa 0.0 l/m 4.1 km/h (1 Bft) S-SO 0.00 h 0 W/m 0.6 C 4.0 C 7.0 km/h (2 Bft)
25.11.2010 19:00 3.9 C 82 % 1000.9 hPa 0.0 l/m 3.5 km/h (1 Bft) W-NW 0.00 h 0 W/m 1.2 C 3.5 C 6.0 km/h (2 Bft)
25.11.2010 20:00 3.2 C 88 % 1000.5 hPa 0.0 l/m 0.0 km/h (0 Bft) N 0.00 h 0 W/m 1.4 C 3.2 C 0.1 km/h (0 Bft)
25.11.2010 21:00 2.7 C 92 % 1000.2 hPa 0.4 l/m 0.4 km/h (0 Bft) SW 0.00 h 0 W/m 1.6 C 2.7 C 1.4 km/h (1 Bft)
25.11.2010 22:00 2.2 C 93 % 999.9 hPa 1.0 l/m 0.2 km/h (0 Bft) S 0.00 h 0 W/m 1.2 C 2.2 C 0.6 km/h (0 Bft)
25.11.2010 23:00 1.5 C 93 % 1000.0 hPa 0.8 l/m 0.0 km/h (0 Bft) N 0.00 h 0 W/m 0.6 C 1.5 C 0.1 km/h (0 Bft)
26.11.2010 00:00 0.9 C 95 % 1000.2 hPa 1.8 l/m 1.7 km/h (1 Bft) S-SO 0.00 h 0 W/m 0.3 C 0.9 C 3.3 km/h (1 Bft)
26.11.2010 01:00 0.9 C 96 % 1000.7 hPa 0.8 l/m 3.7 km/h (1 Bft) W 0.00 h 0 W/m 0.3 C 0.1 C 6.7 km/h (2 Bft)
26.11.2010 02:00 0.7 C 96 % 1001.7 hPa 0.4 l/m 8.2 km/h (2 Bft) W 0.00 h 0 W/m 0.2 C -1.9 C 12.5 km/h (3 Bft)
26.11.2010 03:00 0.8 C 95 % 1002.7 hPa 0.0 l/m 7.6 km/h (2 Bft) W 0.00 h 0 W/m 0.1 C -1.7 C 11.6 km/h (2 Bft)
26.11.2010 04:00 0.8 C 95 % 1003.4 hPa 0.2 l/m 6.4 km/h (2 Bft) W 0.00 h 0 W/m 0.1 C -1.2 C 9.8 km/h (2 Bft)
26.11.2010 05:00 0.6 C 95 % 1003.7 hPa 0.0 l/m 7.4 km/h (2 Bft) W 0.00 h 0 W/m -0.2 C -1.8 C 11.3 km/h (2 Bft)
26.11.2010 06:00 0.4 C 94 % 1004.3 hPa 0.0 l/m 6.4 km/h (2 Bft) W 0.00 h 0 W/m -0.5 C -1.5 C 9.9 km/h (2 Bft)
26.11.2010 07:00 0.3 C 93 % 1005.0 hPa 0.0 l/m 4.8 km/h (1 Bft) W 0.00 h 0 W/m -0.7 C -0.8 C 7.4 km/h (2 Bft)
26.11.2010 08:00 0.3 C 92 % 1005.6 hPa 0.0 l/m 5.0 km/h (1 Bft) W 0.00 h 8 W/m -0.8 C -0.8 C 7.5 km/h (2 Bft)
26.11.2010 09:00 0.4 C 92 % 1006.0 hPa 0.0 l/m 5.4 km/h (1 Bft) W 0.00 h 31 W/m -0.8 C -1.1 C 8.1 km/h (2 Bft)
26.11.2010 10:00 0.4 C 90 % 1006.3 hPa 0.0 l/m 6.3 km/h (2 Bft) W 0.00 h 47 W/m -1.0 C -1.5 C 9.5 km/h (2 Bft)
26.11.2010 11:00 0.6 C 89 % 1006.4 hPa 0.0 l/m 8.7 km/h (2 Bft) W 0.00 h 91 W/m -1.0 C -2.2 C 13.2 km/h (3 Bft)
26.11.2010 12:00 0.5 C 89 % 1006.3 hPa 0.0 l/m 8.7 km/h (2 Bft) W 0.00 h 30 W/m -1.0 C -2.3 C 13.3 km/h (3 Bft)
26.11.2010 13:00 0.4 C 90 % 1006.1 hPa 0.0 l/m 8.4 km/h (2 Bft) W 0.00 h 23 W/m -1.1 C -2.4 C 12.5 km/h (3 Bft)
26.11.2010 14:00 0.4 C 89 % 1006.0 hPa 0.0 l/m 7.6 km/h (2 Bft) W 0.00 h 25 W/m -1.3 C -2.0 C 11.8 km/h (2 Bft)
26.11.2010 15:00 0.6 C 88 % 1006.2 hPa 0.0 l/m 5.4 km/h (1 Bft) W-NW 0.00 h 19 W/m -1.2 C -0.8 C 8.7 km/h (2 Bft)
26.11.2010 16:00 0.4 C 89 % 1006.3 hPa 0.0 l/m 2.0 km/h (1 Bft) SW 0.00 h 6 W/m -1.3 C 0.1 C 4.2 km/h (1 Bft)
26.11.2010 17:00 0.2 C 89 % 1006.6 hPa 0.0 l/m 0.9 km/h (0 Bft) SW 0.00 h 0 W/m -1.4 C 0.2 C 2.3 km/h (1 Bft)
26.11.2010 18:00 0.1 C 90 % 1006.7 hPa 0.0 l/m 1.3 km/h (1 Bft) SW 0.00 h 0 W/m -1.4 C -0.1 C 2.7 km/h (1 Bft)
26.11.2010 19:00 -0.2 C 91 % 1006.8 hPa 0.0 l/m 2.0 km/h (1 Bft) S 0.00 h 0 W/m -1.4 C -0.2 C 4.2 km/h (1 Bft)
26.11.2010 20:00 -0.2 C 92 % 1007.1 hPa 0.2 l/m 0.5 km/h (0 Bft) S-SO 0.00 h 0 W/m -1.3 C -0.2 C 1.5 km/h (1 Bft)
26.11.2010 21:00 -0.2 C 90 % 1007.3 hPa 0.0 l/m 4.4 km/h (1 Bft) W-NW 0.00 h 0 W/m -1.6 C -1.2 C 6.4 km/h (2 Bft)
26.11.2010 22:00 -0.1 C 89 % 1007.5 hPa 0.0 l/m 2.3 km/h (1 Bft) W 0.00 h 0 W/m -1.7 C -0.2 C 4.4 km/h (1 Bft)
26.11.2010 23:00 -0.4 C 91 % 1007.5 hPa 0.0 l/m 1.7 km/h (1 Bft) SW 0.00 h 0 W/m -1.7 C -0.4 C 3.7 km/h (1 Bft)
27.11.2010 00:00 -0.5 C 93 % 1007.4 hPa 0.0 l/m 2.0 km/h (1 Bft) S 0.00 h 0 W/m -1.5 C -0.5 C 4.3 km/h (1 Bft)
27.11.2010 01:00 -0.6 C 93 % 1007.4 hPa 0.0 l/m 2.3 km/h (1 Bft) S 0.00 h 0 W/m -1.7 C -0.8 C 5.4 km/h (1 Bft)
27.11.2010 02:00 -0.8 C 92 % 1007.4 hPa 0.0 l/m 2.0 km/h (1 Bft) S-SO 0.00 h 0 W/m -1.9 C -1.0 C 4.4 km/h (1 Bft)
27.11.2010 03:00 -1.3 C 93 % 1007.3 hPa 0.0 l/m 0.7 km/h (0 Bft) SO 0.00 h 0 W/m -2.3 C -1.3 C 2.0 km/h (1 Bft)
27.11.2010 04:00 -1.4 C 93 % 1006.9 hPa 0.0 l/m 2.0 km/h (1 Bft) O-SO 0.00 h 0 W/m -2.4 C -1.6 C 3.4 km/h (1 Bft)
27.11.2010 05:00 -2.2 C 92 % 1006.4 hPa 0.0 l/m 2.4 km/h (1 Bft) O-SO 0.00 h 0 W/m -3.3 C -2.5 C 3.9 km/h (1 Bft)
27.11.2010 06:00 -2.8 C 93 % 1006.3 hPa 0.0 l/m 1.4 km/h (1 Bft) O 0.00 h 0 W/m -3.8 C -2.8 C 2.3 km/h (1 Bft)
27.11.2010 07:00 -3.4 C 93 % 1005.8 hPa 0.0 l/m 1.6 km/h (1 Bft) SO 0.00 h 5 W/m -4.3 C -3.7 C 2.5 km/h (1 Bft)
27.11.2010 08:00 -3.6 C 94 % 1005.8 hPa 0.0 l/m 1.3 km/h (1 Bft) O-SO 0.00 h 21 W/m -4.4 C -3.7 C 2.7 km/h (1 Bft)
27.11.2010 09:00 -2.9 C 95 % 1005.7 hPa 0.0 l/m 0.4 km/h (0 Bft) N-NO 0.00 h 33 W/m -3.6 C -2.9 C 1.0 km/h (0 Bft)
27.11.2010 10:00 -2.2 C 93 % 1005.6 hPa 0.0 l/m 0.9 km/h (0 Bft) O-SO 0.00 h 47 W/m -3.2 C -2.2 C 2.9 km/h (1 Bft)
27.11.2010 11:00 -1.6 C 91 % 1005.7 hPa 0.0 l/m 1.4 km/h (1 Bft) N-NO 0.00 h 55 W/m -2.9 C -1.9 C 2.9 km/h (1 Bft)
27.11.2010 12:00 -1.2 C 90 % 1005.3 hPa 0.0 l/m 0.2 km/h (0 Bft) NO 0.00 h 76 W/m -2.6 C -1.2 C 1.0 km/h (0 Bft)
27.11.2010 13:00 -1.0 C 92 % 1004.9 hPa 0.6 l/m 0.3 km/h (0 Bft) N-NO 0.00 h 28 W/m -2.0 C -1.0 C 1.5 km/h (1 Bft)
27.11.2010 14:00 -0.9 C 94 % 1004.6 hPa 0.6 l/m 0.5 km/h (0 Bft) N 0.00 h 14 W/m -1.7 C -0.9 C 1.1 km/h (1 Bft)
27.11.2010 15:00 -1.0 C 94 % 1004.5 hPa 1.0 l/m 0.0 km/h (0 Bft) N 0.00 h 7 W/m -1.8 C -1.0 C 0.1 km/h (0 Bft)
27.11.2010 16:00 -1.2 C 95 % 1004.6 hPa 0.8 l/m 0.0 km/h (0 Bft) N 0.00 h 0 W/m -1.9 C -1.2 C 0.0 km/h (0 Bft)
27.11.2010 17:00 -1.2 C 95 % 1004.8 hPa 0.8 l/m 0.0 km/h (0 Bft) N 0.00 h 0 W/m -1.9 C -1.2 C 0.0 km/h (0 Bft)
27.11.2010 18:00 -1.3 C 95 % 1005.1 hPa 0.6 l/m 0.0 km/h (0 Bft) N 0.00 h 0 W/m -2.0 C -1.3 C 0.0 km/h (0 Bft)
27.11.2010 19:00 -1.3 C 96 % 1005.3 hPa 0.6 l/m 0.0 km/h (0 Bft) N 0.00 h 0 W/m -1.9 C -1.3 C 0.0 km/h (0 Bft)
27.11.2010 20:00 -1.6 C 96 % 1005.4 hPa 0.4 l/m 0.0 km/h (0 Bft) N 0.00 h 0 W/m -2.1 C -1.6 C 0.0 km/h (0 Bft)
27.11.2010 21:00 -1.6 C 96 % 1005.7 hPa 0.4 l/m 0.0 km/h (0 Bft) N 0.00 h 0 W/m -2.2 C -1.6 C 0.0 km/h (0 Bft)
27.11.2010 22:00 -1.6 C 96 % 1005.9 hPa 0.6 l/m 0.0 km/h (0 Bft) N 0.00 h 0 W/m -2.2 C -1.6 C 0.0 km/h (0 Bft)
27.11.2010 23:00 -1.8 C 96 % 1006.2 hPa 0.2 l/m 0.0 km/h (0 Bft) N 0.00 h 0 W/m -2.4 C -1.8 C 0.0 km/h (0 Bft)
28.11.2010 00:00 -1.8 C 95 % 1006.3 hPa 0.0 l/m 0.0 km/h (0 Bft) N 0.00 h 0 W/m -2.5 C -1.8 C 0.0 km/h (0 Bft)
28.11.2010 01:00 -2.0 C 95 % 1006.2 hPa 0.2 l/m 0.0 km/h (0 Bft) N 0.00 h 0 W/m -2.7 C -2.0 C 0.0 km/h (0 Bft)
28.11.2010 02:00 -2.3 C 95 % 1006.2 hPa 0.0 l/m 0.0 km/h (0 Bft) N 0.00 h 0 W/m -3.0 C -2.3 C 0.0 km/h (0 Bft)
28.11.2010 03:00 -2.8 C 95 % 1006.0 hPa 0.0 l/m 0.0 km/h (0 Bft) N 0.00 h 0 W/m -3.5 C -2.8 C 0.0 km/h (0 Bft)
28.11.2010 04:00 -2.9 C 96 % 1005.8 hPa 0.0 l/m 0.0 km/h (0 Bft) N 0.00 h 0 W/m -3.4 C -2.9 C 0.0 km/h (0 Bft)
28.11.2010 05:00 -2.8 C 96 % 1005.4 hPa 0.2 l/m 0.0 km/h (0 Bft) N 0.00 h 0 W/m -3.4 C -2.8 C 0.0 km/h (0 Bft)
28.11.2010 06:00 -2.4 C 96 % 1005.1 hPa 0.0 l/m 0.0 km/h (0 Bft) N 0.00 h 0 W/m -2.9 C -2.4 C 0.0 km/h (0 Bft)
28.11.2010 07:00 -2.2 C 97 % 1004.9 hPa 0.0 l/m 0.0 km/h (0 Bft) N 0.00 h 0 W/m -2.7 C -2.2 C 0.0 km/h (0 Bft)
28.11.2010 08:00 -2.5 C 96 % 1005.0 hPa 0.0 l/m 0.0 km/h (0 Bft) N 0.00 h 7 W/m -3.0 C -2.5 C 0.0 km/h (0 Bft)
28.11.2010 09:00 -1.7 C 97 % 1004.8 hPa 0.0 l/m 0.0 km/h (0 Bft) N 0.00 h 12 W/m -2.2 C -1.7 C 0.0 km/h (0 Bft)
28.11.2010 10:00 -0.8 C 96 % 1004.7 hPa 0.2 l/m 0.0 km/h (0 Bft) N 0.00 h 60 W/m -1.4 C -0.8 C 0.3 km/h (0 Bft)
28.11.2010 11:00 -0.8 C 96 % 1004.1 hPa 0.0 l/m 0.3 km/h (0 Bft) O 0.00 h 128 W/m -1.3 C -0.8 C 1.0 km/h (0 Bft)
28.11.2010 12:00 -1.0 C 95 % 1003.0 hPa 0.0 l/m 0.2 km/h (0 Bft) O 0.28 h 170 W/m -1.7 C -1.0 C 0.6 km/h (0 Bft)
28.11.2010 13:00 -0.6 C 95 % 1002.3 hPa 0.0 l/m 0.0 km/h (0 Bft) N 0.25 h 166 W/m -1.3 C -0.6 C 0.1 km/h (0 Bft)
28.11.2010 14:00 0.1 C 95 % 1001.6 hPa 0.0 l/m 0.3 km/h (0 Bft) O 0.33 h 133 W/m -0.7 C 0.1 C 0.8 km/h (0 Bft)
28.11.2010 15:00 0.4 C 94 % 1001.1 hPa 0.0 l/m 0.2 km/h (0 Bft) O 0.00 h 56 W/m -0.4 C 0.4 C 0.3 km/h (0 Bft)
28.11.2010 16:00 -0.2 C 96 % 1000.9 hPa 0.0 l/m 0.6 km/h (0 Bft) O 0.02 h 14 W/m -0.8 C -0.2 C 1.2 km/h (1 Bft)
28.11.2010 17:00 -0.8 C 96 % 1000.7 hPa 0.0 l/m 0.4 km/h (0 Bft) O 0.00 h 0 W/m -1.3 C -0.8 C 1.2 km/h (1 Bft)
28.11.2010 18:00 -1.3 C 96 % 1000.9 hPa 0.0 l/m 2.0 km/h (1 Bft) N-NO 0.00 h 0 W/m -1.8 C -1.4 C 4.1 km/h (1 Bft)
28.11.2010 19:00 -1.5 C 96 % 1000.7 hPa 0.0 l/m 0.3 km/h (0 Bft) O-SO 0.00 h 0 W/m -2.0 C -1.5 C 1.4 km/h (1 Bft)
28.11.2010 20:00 -1.3 C 97 % 1000.8 hPa 0.0 l/m 0.8 km/h (0 Bft) N-NW 0.00 h 0 W/m -1.7 C -1.3 C 2.6 km/h (1 Bft)
28.11.2010 21:00 -1.5 C 97 % 1000.9 hPa 0.0 l/m 1.1 km/h (1 Bft) N 0.00 h 0 W/m -1.9 C -1.5 C 2.5 km/h (1 Bft)
28.11.2010 22:00 -1.6 C 97 % 1001.4 hPa 0.0 l/m 0.4 km/h (0 Bft) W-NW 0.00 h 0 W/m -2.0 C -1.6 C 1.0 km/h (0 Bft)
28.11.2010 23:00 -1.7 C 97 % 1001.6 hPa 0.0 l/m 0.2 km/h (0 Bft) W-SW 0.00 h 0 W/m -2.1 C -1.7 C 0.5 km/h (0 Bft)
Min-Datum _ 27.11.10 25.11.10 25.11.10 - 22.11.10 - - - 27.11.10 27.11.10 22.11.10
_ Min-Zeit 08:00 15:02 22:45 - 00:00 - - - 08:03 07:51 00:00
Minimum _ -3.8 C 71 % 999.7 hPa - 0.0 km/h (0 Bft) - - - -4.6 C -6.0 C 0.0 km/h (0 Bft)
Max-Datum _ 25.11.10 23.11.10 24.11.10 26.11.10 22.11.10 - 25.11.10 25.11.10 22.11.10 25.11.10 22.11.10
_ Max-Zeit 14:06 07:15 10:30 00:08 21:59 - 12:00 14:06 15:03 14:06 21:14
Maximum _ 6.1 C 100 % 1010.7 hPa 1.8 l/m 19.6 km/h
W (3 Bft)
- 0.02 h 288 W/m 4.3 C 6.1 C 27.8 km/h
W (4 Bft)
Durchschnitt _ 1.5 C 92 % 1005.2 hPa #15.4 l/m 3.0 km/h (1 Bft) W #2:24 h 50 W/m 0.3 C 0.9 C 5.1 km/h (1 Bft)
© Kaiko 2010